sensor_id;sensor_type;location;lat;lon;timestamp;temperature;humidity
7472;DHT22;3777;48.722;8.110;2022-08-11T00:00:20;19.60;68.50
7472;DHT22;3777;48.722;8.110;2022-08-11T00:02:51;19.60;68.70
7472;DHT22;3777;48.722;8.110;2022-08-11T00:05:21;19.50;68.00
7472;DHT22;3777;48.722;8.110;2022-08-11T00:07:50;19.50;69.10
7472;DHT22;3777;48.722;8.110;2022-08-11T00:10:18;19.50;69.30
7472;DHT22;3777;48.722;8.110;2022-08-11T00:12:51;19.50;67.60
7472;DHT22;3777;48.722;8.110;2022-08-11T00:15:18;19.40;68.80
7472;DHT22;3777;48.722;8.110;2022-08-11T00:17:46;19.40;70.40
7472;DHT22;3777;48.722;8.110;2022-08-11T00:20:14;19.40;72.10
7472;DHT22;3777;48.722;8.110;2022-08-11T00:22:45;19.40;70.90
7472;DHT22;3777;48.722;8.110;2022-08-11T00:25:14;19.40;70.70
7472;DHT22;3777;48.722;8.110;2022-08-11T00:27:42;19.40;72.60
7472;DHT22;3777;48.722;8.110;2022-08-11T00:30:12;19.40;73.00
7472;DHT22;3777;48.722;8.110;2022-08-11T00:32:41;19.30;72.40
7472;DHT22;3777;48.722;8.110;2022-08-11T00:35:12;19.30;71.20
7472;DHT22;3777;48.722;8.110;2022-08-11T00:37:46;19.20;72.20
7472;DHT22;3777;48.722;8.110;2022-08-11T00:40:19;19.20;71.70
7472;DHT22;3777;48.722;8.110;2022-08-11T00:42:57;19.20;72.90
7472;DHT22;3777;48.722;8.110;2022-08-11T00:45:31;19.20;73.10
7472;DHT22;3777;48.722;8.110;2022-08-11T00:48:04;19.10;73.70
7472;DHT22;3777;48.722;8.110;2022-08-11T00:50:43;19.10;72.50
7472;DHT22;3777;48.722;8.110;2022-08-11T00:53:29;19.10;74.40
7472;DHT22;3777;48.722;8.110;2022-08-11T00:56:30;19.10;74.80
7472;DHT22;3777;48.722;8.110;2022-08-11T00:59:54;19.00;77.40
7472;DHT22;3777;48.722;8.110;2022-08-11T01:02:40;19.00;77.40
7472;DHT22;3777;48.722;8.110;2022-08-11T01:11:31;18.70;76.90
7472;DHT22;3777;48.722;8.110;2022-08-11T01:14:21;18.70;77.50
7472;DHT22;3777;48.722;8.110;2022-08-11T01:20:14;18.60;79.80
7472;DHT22;3777;48.722;8.110;2022-08-11T01:29:07;18.40;82.10
7472;DHT22;3777;48.722;8.110;2022-08-11T01:31:55;18.40;82.00
7472;DHT22;3777;48.722;8.110;2022-08-11T01:38:26;18.30;82.10
7472;DHT22;3777;48.722;8.110;2022-08-11T01:45:02;18.10;85.50
7472;DHT22;3777;48.722;8.110;2022-08-11T01:47:38;18.10;86.40
7472;DHT22;3777;48.722;8.110;2022-08-11T01:50:24;18.10;87.30
7472;DHT22;3777;48.722;8.110;2022-08-11T01:53:03;18.00;87.90
7472;DHT22;3777;48.722;8.110;2022-08-11T01:55:39;18.00;89.50
7472;DHT22;3777;48.722;8.110;2022-08-11T01:58:19;18.00;89.30
7472;DHT22;3777;48.722;8.110;2022-08-11T02:00:55;17.90;88.90
7472;DHT22;3777;48.722;8.110;2022-08-11T02:03:34;17.90;89.20
7472;DHT22;3777;48.722;8.110;2022-08-11T02:06:11;17.90;90.30
7472;DHT22;3777;48.722;8.110;2022-08-11T02:09:01;17.90;90.60
7472;DHT22;3777;48.722;8.110;2022-08-11T02:11:35;17.90;90.60
7472;DHT22;3777;48.722;8.110;2022-08-11T02:14:14;17.90;90.60
7472;DHT22;3777;48.722;8.110;2022-08-11T02:17:10;17.90;91.00
7472;DHT22;3777;48.722;8.110;2022-08-11T02:19:47;17.90;91.50
7472;DHT22;3777;48.722;8.110;2022-08-11T02:22:41;17.80;91.70
7472;DHT22;3777;48.722;8.110;2022-08-11T02:25:33;17.80;91.60
7472;DHT22;3777;48.722;8.110;2022-08-11T02:28:06;17.80;92.30
7472;DHT22;3777;48.722;8.110;2022-08-11T02:30:40;17.70;92.30
7472;DHT22;3777;48.722;8.110;2022-08-11T02:33:34;17.70;92.60
7472;DHT22;3777;48.722;8.110;2022-08-11T02:36:05;17.60;92.50
7472;DHT22;3777;48.722;8.110;2022-08-11T02:38:39;17.60;93.00
7472;DHT22;3777;48.722;8.110;2022-08-11T02:41:15;17.60;92.90
7472;DHT22;3777;48.722;8.110;2022-08-11T02:44:15;17.50;92.70
7472;DHT22;3777;48.722;8.110;2022-08-11T02:46:54;17.50;93.50
7472;DHT22;3777;48.722;8.110;2022-08-11T02:49:32;17.50;93.70
7472;DHT22;3777;48.722;8.110;2022-08-11T02:52:27;17.40;94.30
7472;DHT22;3777;48.722;8.110;2022-08-11T02:55:15;17.40;94.30
7472;DHT22;3777;48.722;8.110;2022-08-11T02:57:50;17.40;94.50
7472;DHT22;3777;48.722;8.110;2022-08-11T03:00:22;17.40;94.30
7472;DHT22;3777;48.722;8.110;2022-08-11T03:02:59;17.40;94.60
7472;DHT22;3777;48.722;8.110;2022-08-11T03:05:41;17.40;94.70
7472;DHT22;3777;48.722;8.110;2022-08-11T03:08:23;17.40;94.80
7472;DHT22;3777;48.722;8.110;2022-08-11T03:10:59;17.40;94.20
7472;DHT22;3777;48.722;8.110;2022-08-11T03:14:11;17.30;94.70
7472;DHT22;3777;48.722;8.110;2022-08-11T03:17:05;17.40;95.00
7472;DHT22;3777;48.722;8.110;2022-08-11T03:19:45;17.30;95.50
7472;DHT22;3777;48.722;8.110;2022-08-11T03:22:21;17.30;95.40
7472;DHT22;3777;48.722;8.110;2022-08-11T03:24:57;17.30;95.60
7472;DHT22;3777;48.722;8.110;2022-08-11T03:27:45;17.30;95.30
7472;DHT22;3777;48.722;8.110;2022-08-11T03:30:16;17.30;95.00
7472;DHT22;3777;48.722;8.110;2022-08-11T03:33:12;17.30;95.00
7472;DHT22;3777;48.722;8.110;2022-08-11T03:36:08;17.30;95.00
7472;DHT22;3777;48.722;8.110;2022-08-11T03:38:52;17.30;94.80
7472;DHT22;3777;48.722;8.110;2022-08-11T03:41:28;17.30;94.60
7472;DHT22;3777;48.722;8.110;2022-08-11T03:44:27;17.30;94.80
7472;DHT22;3777;48.722;8.110;2022-08-11T03:47:11;17.40;94.80
7472;DHT22;3777;48.722;8.110;2022-08-11T03:52:47;17.60;94.10
7472;DHT22;3777;48.722;8.110;2022-08-11T03:55:26;17.60;93.50
7472;DHT22;3777;48.722;8.110;2022-08-11T03:58:34;17.70;93.50
7472;DHT22;3777;48.722;8.110;2022-08-11T04:01:41;17.70;94.10
7472;DHT22;3777;48.722;8.110;2022-08-11T04:08:02;17.80;94.50
7472;DHT22;3777;48.722;8.110;2022-08-11T04:10:51;17.80;93.40
7472;DHT22;3777;48.722;8.110;2022-08-11T04:17:16;17.80;93.50
7472;DHT22;3777;48.722;8.110;2022-08-11T04:23:17;17.80;92.70
7472;DHT22;3777;48.722;8.110;2022-08-11T04:26:11;17.80;92.50
7472;DHT22;3777;48.722;8.110;2022-08-11T04:28:53;17.90;93.00
7472;DHT22;3777;48.722;8.110;2022-08-11T04:31:38;17.90;93.30
7472;DHT22;3777;48.722;8.110;2022-08-11T04:34:43;17.90;93.80
7472;DHT22;3777;48.722;8.110;2022-08-11T04:37:48;17.90;93.70
7472;DHT22;3777;48.722;8.110;2022-08-11T04:40:47;17.90;93.40
7472;DHT22;3777;48.722;8.110;2022-08-11T04:46:39;17.90;94.10
7472;DHT22;3777;48.722;8.110;2022-08-11T04:49:29;17.90;95.20
7472;DHT22;3777;48.722;8.110;2022-08-11T04:52:52;17.90;95.20
7472;DHT22;3777;48.722;8.110;2022-08-11T04:56:02;17.90;95.30
7472;DHT22;3777;48.722;8.110;2022-08-11T04:59:00;17.90;95.40
7472;DHT22;3777;48.722;8.110;2022-08-11T05:02:04;18.00;94.50
7472;DHT22;3777;48.722;8.110;2022-08-11T05:04:49;18.00;94.60
7472;DHT22;3777;48.722;8.110;2022-08-11T05:10:52;18.20;93.30
7472;DHT22;3777;48.722;8.110;2022-08-11T05:13:27;18.30;93.30
7472;DHT22;3777;48.722;8.110;2022-08-11T05:16:16;18.30;93.60
7472;DHT22;3777;48.722;8.110;2022-08-11T05:19:02;18.40;93.20
7472;DHT22;3777;48.722;8.110;2022-08-11T05:21:52;18.50;93.20
7472;DHT22;3777;48.722;8.110;2022-08-11T05:24:51;18.60;93.90
7472;DHT22;3777;48.722;8.110;2022-08-11T05:27:49;18.60;93.50
7472;DHT22;3777;48.722;8.110;2022-08-11T05:30:35;18.80;92.50
7472;DHT22;3777;48.722;8.110;2022-08-11T05:33:29;18.90;91.00
7472;DHT22;3777;48.722;8.110;2022-08-11T05:36:20;19.10;90.80
7472;DHT22;3777;48.722;8.110;2022-08-11T05:38:56;19.20;90.50
7472;DHT22;3777;48.722;8.110;2022-08-11T05:41:41;19.40;89.10
7472;DHT22;3777;48.722;8.110;2022-08-11T05:44:28;19.60;87.40
7472;DHT22;3777;48.722;8.110;2022-08-11T05:47:21;19.80;86.40
7472;DHT22;3777;48.722;8.110;2022-08-11T05:50:09;20.00;88.20
7472;DHT22;3777;48.722;8.110;2022-08-11T05:52:54;20.20;86.90
7472;DHT22;3777;48.722;8.110;2022-08-11T05:55:40;20.50;86.60
7472;DHT22;3777;48.722;8.110;2022-08-11T05:58:31;21.00;82.50
7472;DHT22;3777;48.722;8.110;2022-08-11T06:01:00;21.50;82.60
7472;DHT22;3777;48.722;8.110;2022-08-11T06:03:29;22.00;77.30
7472;DHT22;3777;48.722;8.110;2022-08-11T06:06:18;22.40;75.90
7472;DHT22;3777;48.722;8.110;2022-08-11T06:08:46;23.00;74.00
7472;DHT22;3777;48.722;8.110;2022-08-11T06:11:15;23.50;72.10
7472;DHT22;3777;48.722;8.110;2022-08-11T06:13:44;24.10;70.90
7472;DHT22;3777;48.722;8.110;2022-08-11T06:16:13;24.70;68.20
7472;DHT22;3777;48.722;8.110;2022-08-11T06:18:47;25.30;65.90
7472;DHT22;3777;48.722;8.110;2022-08-11T06:21:15;25.90;62.10
7472;DHT22;3777;48.722;8.110;2022-08-11T06:23:43;26.30;60.80
7472;DHT22;3777;48.722;8.110;2022-08-11T06:26:12;26.90;58.70
7472;DHT22;3777;48.722;8.110;2022-08-11T06:28:43;27.30;57.40
7472;DHT22;3777;48.722;8.110;2022-08-11T06:31:14;27.60;55.00
7472;DHT22;3777;48.722;8.110;2022-08-11T06:33:53;27.80;55.20
7472;DHT22;3777;48.722;8.110;2022-08-11T06:36:28;28.20;54.00
7472;DHT22;3777;48.722;8.110;2022-08-11T06:39:04;28.50;52.90
7472;DHT22;3777;48.722;8.110;2022-08-11T06:41:39;28.40;52.10
7472;DHT22;3777;48.722;8.110;2022-08-11T06:44:17;28.60;52.10
7472;DHT22;3777;48.722;8.110;2022-08-11T06:46:51;28.30;52.20
7472;DHT22;3777;48.722;8.110;2022-08-11T06:49:22;28.10;52.40
7472;DHT22;3777;48.722;8.110;2022-08-11T06:52:15;28.00;52.90
7472;DHT22;3777;48.722;8.110;2022-08-11T06:54:49;27.80;53.80
7472;DHT22;3777;48.722;8.110;2022-08-11T06:57:21;27.50;53.10
7472;DHT22;3777;48.722;8.110;2022-08-11T07:00:08;27.20;54.00
7472;DHT22;3777;48.722;8.110;2022-08-11T07:02:57;26.90;54.10
7472;DHT22;3777;48.722;8.110;2022-08-11T07:05:36;26.60;54.80
7472;DHT22;3777;48.722;8.110;2022-08-11T07:12:00;26.30;54.90
7472;DHT22;3777;48.722;8.110;2022-08-11T07:14:50;26.20;55.20
7472;DHT22;3777;48.722;8.110;2022-08-11T07:17:40;26.20;55.30
7472;DHT22;3777;48.722;8.110;2022-08-11T07:20:12;26.20;55.80
7472;DHT22;3777;48.722;8.110;2022-08-11T07:22:58;26.30;55.10
7472;DHT22;3777;48.722;8.110;2022-08-11T07:25:49;26.30;54.00
7472;DHT22;3777;48.722;8.110;2022-08-11T07:28:38;26.10;54.20
7472;DHT22;3777;48.722;8.110;2022-08-11T07:31:30;26.20;54.80
7472;DHT22;3777;48.722;8.110;2022-08-11T07:34:05;26.30;55.00
7472;DHT22;3777;48.722;8.110;2022-08-11T07:36:43;26.20;53.70
7472;DHT22;3777;48.722;8.110;2022-08-11T07:39:16;26.30;53.80
7472;DHT22;3777;48.722;8.110;2022-08-11T07:41:46;26.30;54.10
7472;DHT22;3777;48.722;8.110;2022-08-11T07:44:14;26.40;54.10
7472;DHT22;3777;48.722;8.110;2022-08-11T07:46:43;26.50;53.50
7472;DHT22;3777;48.722;8.110;2022-08-11T07:49:30;26.60;53.50
7472;DHT22;3777;48.722;8.110;2022-08-11T07:52:17;26.80;53.20
7472;DHT22;3777;48.722;8.110;2022-08-11T07:54:59;26.90;52.20
7472;DHT22;3777;48.722;8.110;2022-08-11T07:57:28;27.00;52.10
7472;DHT22;3777;48.722;8.110;2022-08-11T08:00:15;27.10;52.40
7472;DHT22;3777;48.722;8.110;2022-08-11T08:03:00;27.20;52.80
7472;DHT22;3777;48.722;8.110;2022-08-11T08:05:46;27.40;51.60
7472;DHT22;3777;48.722;8.110;2022-08-11T08:08:34;27.60;51.80
7472;DHT22;3777;48.722;8.110;2022-08-11T08:11:20;27.80;51.00
7472;DHT22;3777;48.722;8.110;2022-08-11T08:14:05;28.00;49.70
7472;DHT22;3777;48.722;8.110;2022-08-11T08:16:50;28.10;49.60
7472;DHT22;3777;48.722;8.110;2022-08-11T08:19:35;28.30;49.00
7472;DHT22;3777;48.722;8.110;2022-08-11T08:22:03;28.50;49.30
7472;DHT22;3777;48.722;8.110;2022-08-11T08:24:31;28.60;48.80
7472;DHT22;3777;48.722;8.110;2022-08-11T08:26:59;28.80;49.30
7472;DHT22;3777;48.722;8.110;2022-08-11T08:29:31;29.00;48.70
7472;DHT22;3777;48.722;8.110;2022-08-11T08:32:17;29.10;47.80
7472;DHT22;3777;48.722;8.110;2022-08-11T08:34:45;29.30;46.30
7472;DHT22;3777;48.722;8.110;2022-08-11T08:37:12;29.50;44.30
7472;DHT22;3777;48.722;8.110;2022-08-11T08:39:44;29.40;45.00
7472;DHT22;3777;48.722;8.110;2022-08-11T08:42:16;29.60;43.90
7472;DHT22;3777;48.722;8.110;2022-08-11T08:44:48;29.80;44.00
7472;DHT22;3777;48.722;8.110;2022-08-11T08:47:17;30.00;44.60
7472;DHT22;3777;48.722;8.110;2022-08-11T08:49:47;30.30;41.90
7472;DHT22;3777;48.722;8.110;2022-08-11T08:52:17;30.40;39.90
7472;DHT22;3777;48.722;8.110;2022-08-11T08:54:50;30.30;36.60
7472;DHT22;3777;48.722;8.110;2022-08-11T08:57:19;30.30;35.80
7472;DHT22;3777;48.722;8.110;2022-08-11T08:59:49;30.30;36.10
7472;DHT22;3777;48.722;8.110;2022-08-11T09:02:17;30.30;35.60
7472;DHT22;3777;48.722;8.110;2022-08-11T09:04:46;30.70;36.30
7472;DHT22;3777;48.722;8.110;2022-08-11T09:07:15;30.90;35.90
7472;DHT22;3777;48.722;8.110;2022-08-11T09:09:48;31.20;35.40
7472;DHT22;3777;48.722;8.110;2022-08-11T09:12:18;31.60;34.40
7472;DHT22;3777;48.722;8.110;2022-08-11T09:14:47;31.70;33.60
7472;DHT22;3777;48.722;8.110;2022-08-11T09:17:33;31.70;33.60
7472;DHT22;3777;48.722;8.110;2022-08-11T09:20:04;32.40;33.70
7472;DHT22;3777;48.722;8.110;2022-08-11T09:22:33;32.80;32.90
7472;DHT22;3777;48.722;8.110;2022-08-11T09:25:20;33.10;32.40
7472;DHT22;3777;48.722;8.110;2022-08-11T09:28:09;33.50;32.00
7472;DHT22;3777;48.722;8.110;2022-08-11T09:30:40;33.80;31.40
7472;DHT22;3777;48.722;8.110;2022-08-11T09:33:09;33.80;30.80
7472;DHT22;3777;48.722;8.110;2022-08-11T09:35:38;33.90;30.90
7472;DHT22;3777;48.722;8.110;2022-08-11T09:38:10;33.80;29.80
7472;DHT22;3777;48.722;8.110;2022-08-11T09:40:56;33.60;29.60
7472;DHT22;3777;48.722;8.110;2022-08-11T09:43:25;33.70;29.30
7472;DHT22;3777;48.722;8.110;2022-08-11T09:46:12;33.60;29.80
7472;DHT22;3777;48.722;8.110;2022-08-11T09:48:42;34.00;29.20
7472;DHT22;3777;48.722;8.110;2022-08-11T09:51:10;34.00;29.20
7472;DHT22;3777;48.722;8.110;2022-08-11T09:53:41;34.20;29.60
7472;DHT22;3777;48.722;8.110;2022-08-11T09:56:15;34.50;29.00
7472;DHT22;3777;48.722;8.110;2022-08-11T09:59:01;34.90;28.80
7472;DHT22;3777;48.722;8.110;2022-08-11T10:01:30;34.90;28.30
7472;DHT22;3777;48.722;8.110;2022-08-11T10:04:03;35.30;28.10
7472;DHT22;3777;48.722;8.110;2022-08-11T10:06:34;35.20;28.20
7472;DHT22;3777;48.722;8.110;2022-08-11T10:09:22;36.00;27.90
7472;DHT22;3777;48.722;8.110;2022-08-11T10:11:52;37.00;26.80
7472;DHT22;3777;48.722;8.110;2022-08-11T10:14:22;36.00;26.80
7472;DHT22;3777;48.722;8.110;2022-08-11T10:17:08;35.00;26.70
7472;DHT22;3777;48.722;8.110;2022-08-11T10:19:36;35.70;26.60
7472;DHT22;3777;48.722;8.110;2022-08-11T10:22:05;36.10;26.50
7472;DHT22;3777;48.722;8.110;2022-08-11T10:24:51;35.90;26.30
7472;DHT22;3777;48.722;8.110;2022-08-11T10:27:38;36.70;26.80
7472;DHT22;3777;48.722;8.110;2022-08-11T10:30:09;38.50;26.00
7472;DHT22;3777;48.722;8.110;2022-08-11T10:32:55;38.70;24.90
7472;DHT22;3777;48.722;8.110;2022-08-11T10:35:41;38.30;25.20
7472;DHT22;3777;48.722;8.110;2022-08-11T10:38:12;37.80;25.80
7472;DHT22;3777;48.722;8.110;2022-08-11T10:40:43;37.20;25.40
7472;DHT22;3777;48.722;8.110;2022-08-11T10:43:13;36.90;25.80
7472;DHT22;3777;48.722;8.110;2022-08-11T10:45:41;36.70;25.80
7472;DHT22;3777;48.722;8.110;2022-08-11T10:48:28;36.70;25.80
7472;DHT22;3777;48.722;8.110;2022-08-11T10:50:56;37.10;25.20
7472;DHT22;3777;48.722;8.110;2022-08-11T10:53:41;36.80;25.60
7472;DHT22;3777;48.722;8.110;2022-08-11T10:56:28;37.20;25.20
7472;DHT22;3777;48.722;8.110;2022-08-11T10:59:16;36.90;25.30
7472;DHT22;3777;48.722;8.110;2022-08-11T11:01:44;36.50;25.20
7472;DHT22;3777;48.722;8.110;2022-08-11T11:04:13;36.40;25.40
7472;DHT22;3777;48.722;8.110;2022-08-11T11:06:49;36.70;25.20
7472;DHT22;3777;48.722;8.110;2022-08-11T11:09:19;36.90;25.40
7472;DHT22;3777;48.722;8.110;2022-08-11T11:11:50;36.40;25.30
7472;DHT22;3777;48.722;8.110;2022-08-11T11:14:41;35.60;25.90
7472;DHT22;3777;48.722;8.110;2022-08-11T11:17:28;34.70;26.60
7472;DHT22;3777;48.722;8.110;2022-08-11T11:20:17;33.70;27.20
7472;DHT22;3777;48.722;8.110;2022-08-11T11:22:45;33.20;27.70
7472;DHT22;3777;48.722;8.110;2022-08-11T11:25:24;32.50;27.90
7472;DHT22;3777;48.722;8.110;2022-08-11T11:28:27;32.00;28.50
7472;DHT22;3777;48.722;8.110;2022-08-11T11:31:09;31.70;28.60
7472;DHT22;3777;48.722;8.110;2022-08-11T11:36:42;31.50;28.80
7472;DHT22;3777;48.722;8.110;2022-08-11T11:39:11;31.30;29.10
7472;DHT22;3777;48.722;8.110;2022-08-11T11:41:38;31.20;29.40
7472;DHT22;3777;48.722;8.110;2022-08-11T11:44:10;31.20;29.50
7472;DHT22;3777;48.722;8.110;2022-08-11T11:46:40;31.10;29.80
7472;DHT22;3777;48.722;8.110;2022-08-11T11:49:10;31.10;29.70
7472;DHT22;3777;48.722;8.110;2022-08-11T11:51:38;31.20;29.50
7472;DHT22;3777;48.722;8.110;2022-08-11T11:54:05;31.20;28.90
7472;DHT22;3777;48.722;8.110;2022-08-11T11:56:34;31.10;29.10
7472;DHT22;3777;48.722;8.110;2022-08-11T11:59:02;31.10;29.60
7472;DHT22;3777;48.722;8.110;2022-08-11T12:01:48;31.20;29.70
7472;DHT22;3777;48.722;8.110;2022-08-11T12:04:17;31.10;29.10
7472;DHT22;3777;48.722;8.110;2022-08-11T12:06:46;31.00;29.60
7472;DHT22;3777;48.722;8.110;2022-08-11T12:09:13;30.80;29.60
7472;DHT22;3777;48.722;8.110;2022-08-11T12:11:49;30.80;29.80
7472;DHT22;3777;48.722;8.110;2022-08-11T12:14:33;30.90;29.50
7472;DHT22;3777;48.722;8.110;2022-08-11T12:17:03;30.80;29.10
7472;DHT22;3777;48.722;8.110;2022-08-11T12:19:31;30.80;29.60
7472;DHT22;3777;48.722;8.110;2022-08-11T12:21:59;30.80;29.90
7472;DHT22;3777;48.722;8.110;2022-08-11T12:24:44;30.80;29.90
7472;DHT22;3777;48.722;8.110;2022-08-11T12:27:30;30.70;30.10
7472;DHT22;3777;48.722;8.110;2022-08-11T12:29:59;30.60;30.00
7472;DHT22;3777;48.722;8.110;2022-08-11T12:32:35;30.60;30.00
7472;DHT22;3777;48.722;8.110;2022-08-11T12:35:03;30.70;30.30
7472;DHT22;3777;48.722;8.110;2022-08-11T12:37:33;30.70;29.70
7472;DHT22;3777;48.722;8.110;2022-08-11T12:40:03;30.70;29.90
7472;DHT22;3777;48.722;8.110;2022-08-11T12:42:48;30.70;29.70
7472;DHT22;3777;48.722;8.110;2022-08-11T12:45:33;30.70;29.60
7472;DHT22;3777;48.722;8.110;2022-08-11T12:48:07;30.70;29.40
7472;DHT22;3777;48.722;8.110;2022-08-11T12:50:55;30.60;29.40
7472;DHT22;3777;48.722;8.110;2022-08-11T12:53:44;30.60;29.80
7472;DHT22;3777;48.722;8.110;2022-08-11T12:56:12;30.80;30.30
7472;DHT22;3777;48.722;8.110;2022-08-11T12:58:57;30.80;29.50
7472;DHT22;3777;48.722;8.110;2022-08-11T13:01:42;30.80;29.80
7472;DHT22;3777;48.722;8.110;2022-08-11T13:04:29;30.80;29.70
7472;DHT22;3777;48.722;8.110;2022-08-11T13:07:14;30.90;29.90
7472;DHT22;3777;48.722;8.110;2022-08-11T13:09:43;31.10;29.40
7472;DHT22;3777;48.722;8.110;2022-08-11T13:12:11;31.00;29.20
7472;DHT22;3777;48.722;8.110;2022-08-11T13:14:57;31.00;29.60
7472;DHT22;3777;48.722;8.110;2022-08-11T13:17:26;31.00;29.60
7472;DHT22;3777;48.722;8.110;2022-08-11T13:19:57;31.00;29.20
7472;DHT22;3777;48.722;8.110;2022-08-11T13:22:25;31.00;28.90
7472;DHT22;3777;48.722;8.110;2022-08-11T13:24:53;30.90;29.20
7472;DHT22;3777;48.722;8.110;2022-08-11T13:27:22;31.00;29.00
7472;DHT22;3777;48.722;8.110;2022-08-11T13:29:50;31.00;28.90
7472;DHT22;3777;48.722;8.110;2022-08-11T13:32:39;30.90;29.30
7472;DHT22;3777;48.722;8.110;2022-08-11T13:35:08;30.90;29.50
7472;DHT22;3777;48.722;8.110;2022-08-11T13:37:40;30.90;28.80
7472;DHT22;3777;48.722;8.110;2022-08-11T13:40:09;30.90;29.00
7472;DHT22;3777;48.722;8.110;2022-08-11T13:42:37;30.90;29.30
7472;DHT22;3777;48.722;8.110;2022-08-11T13:45:06;30.90;29.10
7472;DHT22;3777;48.722;8.110;2022-08-11T13:47:34;30.90;29.10
7472;DHT22;3777;48.722;8.110;2022-08-11T13:50:03;31.00;29.60
7472;DHT22;3777;48.722;8.110;2022-08-11T13:52:33;31.00;29.50
7472;DHT22;3777;48.722;8.110;2022-08-11T13:55:01;31.00;29.30
7472;DHT22;3777;48.722;8.110;2022-08-11T13:57:30;31.10;29.60
7472;DHT22;3777;48.722;8.110;2022-08-11T13:59:59;31.10;28.80
7472;DHT22;3777;48.722;8.110;2022-08-11T14:02:38;31.10;29.00
7472;DHT22;3777;48.722;8.110;2022-08-11T14:05:10;31.10;29.10
7472;DHT22;3777;48.722;8.110;2022-08-11T14:07:42;31.10;29.00
7472;DHT22;3777;48.722;8.110;2022-08-11T14:10:12;31.10;28.90
7472;DHT22;3777;48.722;8.110;2022-08-11T14:12:40;31.10;29.10
7472;DHT22;3777;48.722;8.110;2022-08-11T14:15:41;31.10;28.80
7472;DHT22;3777;48.722;8.110;2022-08-11T14:18:16;31.00;29.10
7472;DHT22;3777;48.722;8.110;2022-08-11T14:20:44;31.00;28.80
7472;DHT22;3777;48.722;8.110;2022-08-11T14:23:34;31.10;28.90
7472;DHT22;3777;48.722;8.110;2022-08-11T14:26:04;31.10;29.40
7472;DHT22;3777;48.722;8.110;2022-08-11T14:28:53;31.10;29.20
7472;DHT22;3777;48.722;8.110;2022-08-11T14:31:22;31.20;29.30
7472;DHT22;3777;48.722;8.110;2022-08-11T14:33:51;31.20;28.70
7472;DHT22;3777;48.722;8.110;2022-08-11T14:36:20;31.20;28.70
7472;DHT22;3777;48.722;8.110;2022-08-11T14:38:50;31.20;28.90
7472;DHT22;3777;48.722;8.110;2022-08-11T14:41:18;31.20;29.00
7472;DHT22;3777;48.722;8.110;2022-08-11T14:44:04;31.30;29.10
7472;DHT22;3777;48.722;8.110;2022-08-11T14:46:48;31.30;28.60
7472;DHT22;3777;48.722;8.110;2022-08-11T14:49:33;31.20;28.50
7472;DHT22;3777;48.722;8.110;2022-08-11T14:52:03;31.20;28.70
7472;DHT22;3777;48.722;8.110;2022-08-11T14:54:34;31.20;28.90
7472;DHT22;3777;48.722;8.110;2022-08-11T14:57:19;31.20;28.80
7472;DHT22;3777;48.722;8.110;2022-08-11T14:59:48;31.10;28.30
7472;DHT22;3777;48.722;8.110;2022-08-11T15:02:17;31.10;28.70
7472;DHT22;3777;48.722;8.110;2022-08-11T15:05:03;31.10;28.80
7472;DHT22;3777;48.722;8.110;2022-08-11T15:07:32;31.10;28.40
7472;DHT22;3777;48.722;8.110;2022-08-11T15:10:02;31.10;28.70
7472;DHT22;3777;48.722;8.110;2022-08-11T15:12:30;31.20;28.20
7472;DHT22;3777;48.722;8.110;2022-08-11T15:14:58;31.20;28.70
7472;DHT22;3777;48.722;8.110;2022-08-11T15:17:44;31.20;28.20
7472;DHT22;3777;48.722;8.110;2022-08-11T15:20:14;31.20;28.30
7472;DHT22;3777;48.722;8.110;2022-08-11T15:22:59;31.20;28.40
7472;DHT22;3777;48.722;8.110;2022-08-11T15:25:50;31.20;28.30
7472;DHT22;3777;48.722;8.110;2022-08-11T15:28:19;31.20;28.60
7472;DHT22;3777;48.722;8.110;2022-08-11T15:31:05;31.20;28.40
7472;DHT22;3777;48.722;8.110;2022-08-11T15:33:52;31.10;28.60
7472;DHT22;3777;48.722;8.110;2022-08-11T15:36:37;31.10;28.80
7472;DHT22;3777;48.722;8.110;2022-08-11T15:39:26;31.10;28.50
7472;DHT22;3777;48.722;8.110;2022-08-11T15:41:59;31.10;28.80
7472;DHT22;3777;48.722;8.110;2022-08-11T15:44:50;31.10;28.40
7472;DHT22;3777;48.722;8.110;2022-08-11T15:47:40;31.10;28.10
7472;DHT22;3777;48.722;8.110;2022-08-11T15:50:12;31.10;27.90
7472;DHT22;3777;48.722;8.110;2022-08-11T15:52:47;31.10;28.50
7472;DHT22;3777;48.722;8.110;2022-08-11T15:55:15;31.10;28.30
7472;DHT22;3777;48.722;8.110;2022-08-11T15:57:46;31.10;28.80
7472;DHT22;3777;48.722;8.110;2022-08-11T16:00:32;31.10;28.50
7472;DHT22;3777;48.722;8.110;2022-08-11T16:03:18;31.10;28.30
7472;DHT22;3777;48.722;8.110;2022-08-11T16:06:03;31.10;28.90
7472;DHT22;3777;48.722;8.110;2022-08-11T16:08:31;31.10;28.70
7472;DHT22;3777;48.722;8.110;2022-08-11T16:11:01;31.20;28.40
7472;DHT22;3777;48.722;8.110;2022-08-11T16:13:31;31.10;28.20
7472;DHT22;3777;48.722;8.110;2022-08-11T16:16:16;31.10;28.00
7472;DHT22;3777;48.722;8.110;2022-08-11T16:18:47;31.10;28.00
7472;DHT22;3777;48.722;8.110;2022-08-11T16:21:18;31.00;28.20
7472;DHT22;3777;48.722;8.110;2022-08-11T16:23:50;31.00;28.30
7472;DHT22;3777;48.722;8.110;2022-08-11T16:26:20;31.00;28.50
7472;DHT22;3777;48.722;8.110;2022-08-11T16:28:50;31.00;28.40
7472;DHT22;3777;48.722;8.110;2022-08-11T16:31:19;31.00;27.80
7472;DHT22;3777;48.722;8.110;2022-08-11T16:33:49;31.00;28.10
7472;DHT22;3777;48.722;8.110;2022-08-11T16:36:18;30.90;27.70
7472;DHT22;3777;48.722;8.110;2022-08-11T16:39:14;31.00;27.60
7472;DHT22;3777;48.722;8.110;2022-08-11T16:41:43;30.90;27.40
7472;DHT22;3777;48.722;8.110;2022-08-11T16:44:30;30.90;27.40
7472;DHT22;3777;48.722;8.110;2022-08-11T16:47:17;30.80;27.30
7472;DHT22;3777;48.722;8.110;2022-08-11T16:49:47;30.80;27.40
7472;DHT22;3777;48.722;8.110;2022-08-11T16:52:14;30.80;27.20
7472;DHT22;3777;48.722;8.110;2022-08-11T16:54:42;30.70;27.00
7472;DHT22;3777;48.722;8.110;2022-08-11T16:57:13;30.70;27.10
7472;DHT22;3777;48.722;8.110;2022-08-11T16:59:58;30.60;27.10
7472;DHT22;3777;48.722;8.110;2022-08-11T17:02:31;30.60;27.40
7472;DHT22;3777;48.722;8.110;2022-08-11T17:05:19;30.60;27.20
7472;DHT22;3777;48.722;8.110;2022-08-11T17:08:06;30.60;27.50
7472;DHT22;3777;48.722;8.110;2022-08-11T17:10:55;30.60;27.40
7472;DHT22;3777;48.722;8.110;2022-08-11T17:13:43;30.60;27.20
7472;DHT22;3777;48.722;8.110;2022-08-11T17:16:16;30.50;27.30
7472;DHT22;3777;48.722;8.110;2022-08-11T17:18:50;30.50;27.10
7472;DHT22;3777;48.722;8.110;2022-08-11T17:21:21;30.50;27.00
7472;DHT22;3777;48.722;8.110;2022-08-11T17:23:53;30.40;27.00
7472;DHT22;3777;48.722;8.110;2022-08-11T17:26:27;30.40;27.30
7472;DHT22;3777;48.722;8.110;2022-08-11T17:29:18;30.40;27.30
7472;DHT22;3777;48.722;8.110;2022-08-11T17:31:48;30.40;27.40
7472;DHT22;3777;48.722;8.110;2022-08-11T17:34:33;30.30;26.90
7472;DHT22;3777;48.722;8.110;2022-08-11T17:37:17;30.30;27.00
7472;DHT22;3777;48.722;8.110;2022-08-11T17:39:46;30.20;27.10
7472;DHT22;3777;48.722;8.110;2022-08-11T17:42:15;30.10;27.10
7472;DHT22;3777;48.722;8.110;2022-08-11T17:45:01;30.10;27.20
7472;DHT22;3777;48.722;8.110;2022-08-11T17:47:48;30.10;27.20
7472;DHT22;3777;48.722;8.110;2022-08-11T17:50:35;30.00;27.20
7472;DHT22;3777;48.722;8.110;2022-08-11T17:53:03;29.90;27.40
7472;DHT22;3777;48.722;8.110;2022-08-11T17:55:48;29.90;27.40
7472;DHT22;3777;48.722;8.110;2022-08-11T17:58:31;29.80;27.50
7472;DHT22;3777;48.722;8.110;2022-08-11T18:01:18;29.70;27.50
7472;DHT22;3777;48.722;8.110;2022-08-11T18:03:48;29.60;27.50